Latest Weather Observations for Shark Bay Airport

IDW60801

Issued at 5:03 am WST Sunday 22 October 2017 (issued every 30 minutes, with the page automatically refreshed every 10 minutes)

About weather observations | Map of weather stations | Latest weather observations for WA | Other Formats
Station Details ID: 006105 Name: SHARK BAY AIRPORT Lat: -25.89 Lon: 113.58 Height: 33.8 m
Data from the previous 72 hours. | See also: Recent months at Shark Bay Airport
Date/Time
WST
Temp
°C
App
Temp
°C
Dew
Point
°C
Rel
Hum
%
Delta-T
°C
Wind Press
QNH
hPa
Press
MSL
hPa
Rain since
9am
mm
Dir  Spd
km/h
Gust
km/h
Spd
kts
Gust
kts
22/05:00am 19.4 18.0 15.5 78 2.3 SW 17 22 9 12 1013.4 1013.3 0.0
22/04:30am 19.1 17.6 15.2 78 2.3 SW 17 20 9 11 1013.4 1013.3 0.0
22/04:00am 18.8 17.9 14.9 78 2.3 SW 13 22 7 12 1013.4 1013.3 0.0
22/03:30am 18.8 18.1 15.3 80 2.1 SW 13 20 7 11 1013.5 1013.4 0.0
22/03:00am 18.8 17.9 14.9 78 2.3 SW 13 20 7 11 1013.6 1013.5 0.0
22/02:30am 19.0 17.4 14.9 77 2.4 SW 17 24 9 13 1013.7 1013.6 0.0
22/02:00am 19.3 17.5 15.4 78 2.3 WSW 19 26 10 14 1013.9 1013.8 0.0
22/01:30am 19.3 17.3 15.4 78 2.3 WSW 20 26 11 14 1014.0 1013.9 0.0
22/01:00am 19.4 17.5 15.7 79 2.2 SW 20 28 11 15 1014.4 1014.3 0.0
22/12:30am 19.1 17.3 16.0 82 1.8 WSW 20 30 11 16 1014.8 1014.7 0.0
22/12:00am 18.8 18.9 15.5 81 1.9 W 9 15 5 8 1014.9 1014.8 0.0
 
Date/Time
WST
Temp
°C
App
Temp
°C
Dew
Point
°C
Rel
Hum
%
Delta-T
°C
Wind Press
QNH
hPa
Press
MSL
hPa
Rain since
9am
mm
Dir  Spd
km/h
Gust
km/h
Spd
kts
Gust
kts
21/11:30pm 18.6 16.9 15.7 83 1.7 WSW 19 24 10 13 1015.0 1014.9 0.0
21/11:00pm 18.7 19.4 15.6 82 1.8 NNW 6 9 3 5 1015.3 1015.2 0.0
21/10:30pm 18.7 18.8 15.4 81 1.9 WSW 9 15 5 8 1015.2 1015.1 0.0
21/10:00pm 19.0 17.7 15.7 81 2.0 WSW 17 20 9 11 1015.4 1015.3 0.0
21/09:30pm 19.4 17.2 15.9 80 2.1 WSW 22 26 12 14 1015.5 1015.4 0.0
21/09:00pm 19.4 17.8 15.9 80 2.1 WSW 19 22 10 12 1015.5 1015.4 0.0
21/08:30pm 19.5 17.8 15.8 79 2.2 WSW 19 22 10 12 1015.4 1015.3 0.0
21/08:00pm 19.6 18.6 15.7 78 2.3 WSW 15 20 8 11 1015.2 1015.1 0.0
21/07:30pm 20.0 18.1 15.8 77 2.5 WSW 20 26 11 14 1015.1 1015.0 0.0
21/07:00pm 20.3 18.1 15.9 76 2.6 WSW 22 26 12 14 1014.7 1014.6 0.0
21/06:30pm 20.8 18.9 15.8 73 3.0 WSW 20 32 11 17 1014.5 1014.4 0.0
21/06:00pm 21.7 19.1 15.8 69 3.5 WSW 24 32 13 17 1014.2 1014.1 0.0
21/05:30pm 22.4 19.0 15.7 66 4.0 WSW 28 33 15 18 1014.1 1014.0 0.0
21/05:00pm 23.5 20.4 15.5 60 4.8 WSW 26 35 14 19 1014.1 1014.0 0.0
21/04:30pm 24.4 20.4 15.3 57 5.5 WSW 30 37 16 20 1014.0 1013.9 0.0
21/04:00pm 25.2 22.3 16.1 57 5.6 WSW 26 32 14 17 1014.0 1013.9 0.0
21/03:30pm 25.6 22.7 16.2 56 5.8 W 26 32 14 17 1014.2 1014.1 0.0
21/03:00pm 25.6 22.1 15.6 54 6.1 W 28 35 15 19 1014.3 1014.2 0.0
21/02:30pm 26.3 22.8 15.4 51 6.6 W 28 35 15 19 1014.6 1014.5 0.0
21/02:00pm 26.5 23.0 15.5 50 6.7 W 28 35 15 19 1014.9 1014.8 0.0
21/01:30pm 26.2 23.2 15.9 53 6.3 W 26 35 14 19 1015.1 1015.0 0.0
21/01:00pm 25.7 22.9 16.3 56 5.8 WSW 26 33 14 18 1015.4 1015.3 0.0
21/12:30pm 26.5 23.7 16.4 53 6.2 W 26 33 14 18 1015.5 1015.4 0.0
21/12:00pm 25.0 22.4 15.9 57 5.5 WSW 24 32 13 17 1015.7 1015.6 0.0
21/11:30am 24.4 22.3 16.1 60 5.1 W 22 26 12 14 1015.8 1015.7 0.0
21/11:00am 25.7 24.4 16.8 58 5.5 W 19 26 10 14 1016.0 1015.9 0.0
21/10:30am 25.9 25.5 18.1 62 4.9 W 17 24 9 13 1016.4 1016.3 0.0
21/10:00am 24.5 23.6 17.7 66 4.2 W 19 24 10 13 1016.4 1016.3 0.0
21/09:30am 23.7 22.5 17.0 66 4.1 W 19 24 10 13 1016.5 1016.4 0.0
21/09:00am 23.8 24.3 17.5 68 3.9 W 11 19 6 10 1016.7 1016.6 0.0
21/08:30am 22.6 24.4 18.2 76 2.8 NNW 6 7 3 4 1016.3 1016.2 0.0
21/08:00am 21.5 23.6 18.1 81 2.1 WNW 4 7 2 4 1016.4 1016.3 0.0
21/07:30am 20.0 22.8 18.0 88 1.2 CALM 0 0 0 0 1016.2 1016.1 0.0
21/07:00am 19.8 22.7 18.1 90 1.1 CALM 0 0 0 0 1016.0 1015.9 0.0
21/06:30am 19.4 21.4 17.9 91 0.9 E 4 9 2 5 1016.1 1016.0 0.0
21/06:00am 19.1 20.4 17.6 91 0.9 ESE 7 9 4 5 1015.3 1015.2 0.0
21/05:30am 19.0 20.5 17.5 91 0.9 ESE 6 11 3 6 1015.0 1014.9 0.0
21/05:00am 18.8 20.0 17.3 91 0.9 E 7 11 4 6 1014.6 1014.5 0.0
21/04:30am 19.2 19.5 17.9 92 0.8 WSW 13 20 7 11 1013.9 1013.8 0.0
21/04:00am 19.1 18.0 17.8 92 0.8 WSW 20 26 11 14 1013.5 1013.4 0.0
21/03:30am 19.4 18.6 18.1 92 0.8 W 19 22 10 12 1013.6 1013.5 0.0
21/03:00am 19.3 18.4 17.8 91 0.9 W 19 24 10 13 1013.7 1013.6 0.0
21/02:30am 19.4 18.9 17.9 91 0.9 W 17 20 9 11 1013.6 1013.5 0.0
21/02:00am 19.7 18.8 18.2 91 0.9 W 20 26 11 14 1013.7 1013.6 0.0
21/01:30am 19.8 19.4 18.1 90 1.1 W 17 20 9 11 1013.9 1013.8 0.0
21/01:00am 19.7 19.7 18.0 90 1.0 W 15 20 8 11 1014.2 1014.1 0.0
21/12:30am 19.8 19.0 18.1 90 1.1 W 19 22 10 12 1014.7 1014.6 0.0
21/12:00am 20.0 18.3 18.1 89 1.2 WNW 24 28 13 15 1014.8 1014.7 0.0
 
Date/Time
WST
Temp
°C
App
Temp
°C
Dew
Point
°C
Rel
Hum
%
Delta-T
°C
Wind Press
QNH
hPa
Press
MSL
hPa
Rain since
9am
mm
Dir  Spd
km/h
Gust
km/h
Spd
kts
Gust
kts
20/11:30pm 20.3 19.0 18.2 88 1.3 WNW 22 28 12 15 1015.2 1015.1 0.0
20/11:00pm 20.2 19.8 18.0 87 1.4 NW 17 20 9 11 1015.4 1015.3 0.0
20/10:30pm 20.2 19.7 17.8 86 1.5 NW 17 20 9 11 1015.6 1015.5 0.0
20/10:00pm 20.4 19.9 17.8 85 1.6 NW 17 24 9 13 1015.7 1015.6 0.0
20/09:30pm 20.3 19.4 16.9 81 2.1 NW 17 20 9 11 1015.6 1015.5 0.0
20/09:00pm 20.7 20.5 16.7 78 2.4 NW 13 17 7 9 1015.7 1015.6 0.0
20/08:30pm 21.2 20.7 16.8 76 2.7 NNW 15 17 8 9 1015.6 1015.5 0.0
20/08:00pm 21.8 21.7 17.0 74 2.9 WSW 13 17 7 9 1014.9 1014.8 0.0
20/07:30pm 22.6 21.5 15.2 63 4.4 WNW 15 17 8 9 1014.7 1014.6 0.0
20/07:00pm 23.3 22.0 13.8 55 5.5 NW 13 15 7 8 1014.2 1014.1 0.0
20/06:30pm 24.5 22.1 12.5 47 6.9 NW 17 20 9 11 1013.7 1013.6 0.0
20/06:00pm 26.4 23.0 9.3 34 9.4 NW 17 20 9 11 1013.4 1013.3 0.0
20/05:30pm 29.0 24.6 7.6 26 11.6 WNW 20 30 11 16 1013.2 1013.1 0.0
20/05:00pm 30.2 24.9 6.8 23 12.6 NW 24 32 13 17 1013.0 1012.9 0.0
20/04:30pm 31.0 24.9 4.7 19 13.7 NW 26 35 14 19 1012.5 1012.4 0.0
20/04:00pm 30.6 24.0 4.4 19 13.6 NW 28 35 15 19 1012.5 1012.4 0.0
20/03:30pm 31.1 25.7 8.2 24 12.7 WNW 26 33 14 18 1012.4 1012.3 0.0
20/03:00pm 31.8 26.1 6.8 21 13.6 WNW 26 33 14 18 1012.3 1012.2 0.0
20/02:30pm 33.3 26.4 6.6 19 14.5 WNW 32 41 17 22 1012.4 1012.3 0.0
20/02:00pm 34.8 28.0 5.3 16 15.9 WNW 30 35 16 19 1012.3 1012.2 0.0
20/01:30pm 35.1 29.3 4.6 15 16.2 W 24 35 13 19 1012.4 1012.3 0.0
20/01:00pm 36.1 31.3 5.4 15 16.6 W 20 26 11 14 1012.7 1012.6 0.0
20/12:30pm 34.4 29.3 5.8 17 15.5 WNW 22 28 12 15 1013.1 1013.0 0.0
20/12:00pm 36.9 31.8 2.8 12 17.8 NE 19 30 10 16 1013.4 1013.3 0.0
20/11:30am 37.2 31.5 3.1 12 17.9 NE 22 30 12 16 1013.5 1013.4 0.0
20/11:00am 35.1 27.8 2.6 13 16.8 NE 30 37 16 20 1013.9 1013.8 0.0
20/10:30am 35.0 27.9 3.5 14 16.5 ENE 30 50 16 27 1014.1 1014.0 0.0
20/10:24am 34.2 26.6 2.9 14 16.1 ENE 32 50 17 27 1014.1 1014.0 0.0
20/10:00am 34.0 27.5 4.6 16 15.6 ENE 28 41 15 22 1014.2 1014.1 0.0
20/09:30am 32.0 25.3 3.9 17 14.5 ENE 28 35 15 19 1014.3 1014.2 0.0
20/09:00am 30.2 23.9 4.0 19 13.4 E 26 35 14 19 1014.7 1014.6 0.0
20/08:30am 28.6 22.4 4.2 21 12.4 E 26 35 14 19 1014.7 1014.6 0.0
20/08:00am 27.1 22.1 4.8 24 11.4 ESE 20 26 11 14 1014.6 1014.5 0.0
20/07:30am 24.4 21.0 7.5 34 8.9 SE 15 22 8 12 1014.6 1014.5 0.0
20/07:00am 20.0 18.0 10.1 53 5.3 SSE 11 13 6 7 1014.6 1014.5 0.0
20/06:30am 16.8 14.4 10.0 64 3.6 SSE 13 15 7 8 1014.4 1014.3 0.0
20/06:00am 15.0 12.6 10.0 72 2.6 SSE 13 15 7 8 1014.1 1014.0 0.0
20/05:30am 15.2 12.6 10.6 74 2.4 SSE 15 17 8 9 1013.8 1013.7 0.0
20/05:00am 15.5 13.4 11.3 76 2.3 SSE 13 17 7 9 1013.7 1013.6 0.0
20/04:30am 15.9 14.4 11.9 77 2.2 SSE 11 17 6 9 1013.8 1013.7 0.0
20/04:00am 16.7 15.6 13.0 79 2.1 SSE 11 15 6 8 1013.8 1013.7 0.0
20/03:30am 17.3 15.8 14.2 82 1.8 SSE 15 19 8 10 1013.9 1013.8 0.0
20/03:00am 17.7 16.3 14.6 82 1.8 S 15 22 8 12 1014.0 1013.9 0.0
20/02:30am 18.0 15.9 14.7 81 1.9 S 19 24 10 13 1014.2 1014.1 0.0
20/02:00am 18.2 16.1 14.7 80 2.0 S 19 24 10 13 1014.5 1014.4 0.0
20/01:30am 18.3 16.1 14.8 80 2.0 S 20 30 11 16 1015.0 1014.9 0.0
20/01:00am 18.6 15.3 14.9 79 2.2 S 26 37 14 20 1015.4 1015.3 0.0
20/12:30am 18.6 15.5 14.5 77 2.4 S 24 37 13 20 1015.6 1015.5 0.0
20/12:00am 18.8 14.9 14.3 75 2.6 S 28 37 15 20 1015.8 1015.7 0.0
 
Date/Time
WST
Temp
°C
App
Temp
°C
Dew
Point
°C
Rel
Hum
%
Delta-T
°C
Wind Press
QNH
hPa
Press
MSL
hPa
Rain since
9am
mm
Dir  Spd
km/h
Gust
km/h
Spd
kts
Gust
kts
19/11:30pm 19.0 15.0 14.1 73 2.8 S 28 39 15 21 1016.1 1016.0 0.0
19/11:00pm 19.2 15.2 14.0 72 3.0 S 28 48 15 26 1016.4 1016.3 0.0
19/10:30pm 19.4 14.3 13.8 70 3.2 S 33 46 18 25 1016.6 1016.5 0.0
19/10:18pm 19.4 14.8 13.6 69 3.3 S 30 48 16 26 1016.9 1016.8 0.0
19/10:00pm 19.5 14.9 13.4 68 3.5 S 30 44 16 24 1017.0 1016.9 0.0
19/09:30pm 19.6 14.9 13.1 66 3.7 S 30 43 16 23 1017.1 1017.0 0.0
19/09:00pm 19.8 14.5 12.6 63 4.0 S 32 44 17 24 1017.2 1017.1 0.0
19/08:30pm 20.1 14.4 11.1 56 4.9 S 32 48 17 26 1017.1 1017.0 0.0
19/08:00pm 20.2 14.6 11.4 57 4.8 S 32 44 17 24 1017.0 1016.9 0.0
19/07:30pm 20.6 14.9 11.0 54 5.3 S 32 52 17 28 1016.8 1016.7 0.0
19/07:28pm 20.5 15.6 11.4 56 5.0 S 28 46 15 25 1016.8 1016.7 0.0
19/07:00pm 20.9 15.5 12.3 58 4.8 SSW 32 44 17 24 1016.6 1016.5 0.0
19/06:30pm 21.8 15.3 10.3 48 6.3 SSW 35 52 19 28 1016.2 1016.1 0.0
19/06:00pm 23.0 16.8 10.1 44 7.1 S 33 48 18 26 1015.9 1015.8 0.0
19/05:54pm 23.4 17.4 10.1 43 7.3 S 32 50 17 27 1015.8 1015.7 0.0
19/05:30pm 24.3 17.4 10.2 41 7.8 SSW 37 48 20 26 1015.7 1015.6 0.0
19/05:00pm 25.6 18.3 10.2 38 8.5 SSW 39 54 21 29 1015.6 1015.5 0.0
19/04:30pm 27.1 20.0 8.0 30 10.3 SSW 35 48 19 26 1015.4 1015.3 0.0
19/04:12pm 28.0 20.8 7.8 28 10.9 SSW 35 46 19 25 1015.2 1015.1 0.0
19/04:00pm 29.1 22.4 8.2 27 11.4 WSW 33 43 18 23 1015.2 1015.1 0.0
19/03:30pm 29.5 23.1 8.5 27 11.6 SW 32 43 17 23 1015.2 1015.1 0.0
19/03:00pm 31.0 25.3 0.4 14 14.8 N 20 35 11 19 1015.2 1015.1 0.0
19/02:30pm 32.3 27.7 -0.7 12 15.8 E 13 30 7 16 1015.5 1015.4 0.0
19/02:00pm 32.3 26.6 -0.7 12 15.8 ESE 19 30 10 16 1015.8 1015.7 0.0
19/01:30pm 31.7 25.5 -0.1 13 15.4 ESE 22 33 12 18 1016.1 1016.0 0.0
19/01:00pm 31.3 25.2 0.6 14 14.9 ESE 22 33 12 18 1016.5 1016.4 0.0
19/12:30pm 30.6 24.7 1.9 16 14.2 SE 22 32 12 17 1016.9 1016.8 0.0
19/12:00pm 29.7 23.5 2.1 17 13.6 ESE 24 35 13 19 1017.3 1017.2 0.0
19/11:30am 28.7 22.2 2.8 19 12.9 SE 26 37 14 20 1017.6 1017.5 0.0
19/11:00am 27.8 21.8 3.5 21 12.1 ESE 24 41 13 22 1018.2 1018.1 0.0
19/10:30am 26.6 19.9 3.8 23 11.4 ESE 28 37 15 20 1018.5 1018.4 0.0
19/10:00am 25.2 18.2 4.3 26 10.4 ESE 30 39 16 21 1018.8 1018.7 0.0
19/09:30am 24.0 17.5 4.9 29 9.6 ESE 28 43 15 23 1018.8 1018.7 0.0
19/09:00am 22.5 15.3 5.0 32 8.7 ESE 32 44 17 24 1019.0 1018.9 -
19/08:30am 22.3 15.7 6.1 35 8.2 ESE 30 43 16 23 1019.1 1019.0 -
19/08:00am 20.7 13.8 6.3 39 7.2 ESE 32 46 17 25 1019.0 1018.9 -
19/07:30am 19.9 14.7 7.3 44 6.4 ESE 24 35 13 19 1019.1 1019.0 -
19/07:00am 18.2 13.5 7.9 51 5.2 SE 22 35 12 19 1019.0 1018.9 -
19/06:30am 15.1 11.5 8.3 64 3.4 SE 17 22 9 12 1018.7 1018.6 -
19/06:00am 13.4 9.5 7.2 66 3.0 SE 17 22 9 12 1018.4 1018.3 0.0
19/05:30am 13.0 9.1 7.0 67 2.9 SE 17 24 9 13 1018.0 1017.9 0.0

Other Formats:

Comma delimited format used in spreadsheet applications
http://www.bom.gov.au/fwo/IDW60801/IDW60801.95402.axf

JavaScript Object Notation format (JSON) in row-major order
http://www.bom.gov.au/fwo/IDW60801/IDW60801.95402.json